createdAt,value
2023-05-09T00:01:46.659Z,66.60
2023-05-09T00:04:14.017Z,66.61
2023-05-09T00:06:41.030Z,66.86
2023-05-09T00:09:08.114Z,66.83
2023-05-09T00:11:34.940Z,66.57
2023-05-09T00:14:02.632Z,66.87
2023-05-09T00:16:29.720Z,66.79
2023-05-09T00:18:58.124Z,66.95
2023-05-09T00:21:25.150Z,67.14
2023-05-09T00:23:52.359Z,67.82
2023-05-09T00:26:19.268Z,68.18
2023-05-09T00:28:47.345Z,67.74
2023-05-09T00:31:17.602Z,67.49
2023-05-09T00:33:44.696Z,67.48
2023-05-09T00:36:11.617Z,68.08
2023-05-09T00:38:38.492Z,68.57
2023-05-09T00:41:05.606Z,68.53
2023-05-09T00:43:32.487Z,68.62
2023-05-09T00:45:59.531Z,68.41
2023-05-09T00:48:26.896Z,67.81
2023-05-09T00:50:54.126Z,68.18
2023-05-09T00:53:21.618Z,68.17
2023-05-09T00:55:48.703Z,68.48
2023-05-09T00:58:16.020Z,68.59
2023-05-09T01:00:43.573Z,68.69
2023-05-09T01:03:10.805Z,68.58
2023-05-09T01:05:54.621Z,68.75
2023-05-09T01:08:27.619Z,68.93
2023-05-09T01:11:22.937Z,69.56
2023-05-09T01:14:04.453Z,69.63
2023-05-09T01:16:41.148Z,69.65
2023-05-09T01:19:36.783Z,69.24
2023-05-09T01:22:07.908Z,69.74
2023-05-09T01:24:53.707Z,69.68
2023-05-09T01:27:39.239Z,69.86
2023-05-09T01:30:09.958Z,70.13
2023-05-09T01:32:39.482Z,70.02
2023-05-09T01:35:08.842Z,70.17
2023-05-09T01:37:39.311Z,70.05
2023-05-09T01:40:14.806Z,70.37
2023-05-09T01:42:47.686Z,70.79
2023-05-09T01:45:17.360Z,70.43
2023-05-09T01:47:45.268Z,70.40
2023-05-09T01:50:15.379Z,70.90
2023-05-09T01:52:43.671Z,70.70
2023-05-09T01:55:12.443Z,71.11
2023-05-09T01:57:40.673Z,70.75
2023-05-09T02:00:10.203Z,70.94
2023-05-09T02:02:41.645Z,70.88
2023-05-09T02:05:12.054Z,71.01
2023-05-09T02:07:41.821Z,71.16
2023-05-09T02:10:10.362Z,71.46
2023-05-09T02:12:38.474Z,71.20
2023-05-09T02:15:06.686Z,71.40
2023-05-09T02:17:34.144Z,71.11
2023-05-09T02:20:01.224Z,70.92
2023-05-09T02:22:48.388Z,71.02
2023-05-09T02:25:15.859Z,71.13
2023-05-09T02:27:45.791Z,71.03
2023-05-09T02:30:22.065Z,70.59
2023-05-09T02:32:53.808Z,71.04
2023-05-09T02:35:23.228Z,71.14
2023-05-09T02:37:50.148Z,70.94
2023-05-09T02:40:18.286Z,70.64
2023-05-09T02:42:46.698Z,70.65
2023-05-09T02:45:13.871Z,70.22
2023-05-09T02:47:41.028Z,70.42
2023-05-09T02:50:08.575Z,70.15
2023-05-09T02:52:37.421Z,69.99
2023-05-09T02:55:04.940Z,69.83
2023-05-09T02:57:35.127Z,69.87
2023-05-09T03:00:04.802Z,69.62
2023-05-09T03:02:32.868Z,69.50
2023-05-09T03:04:59.998Z,69.01
2023-05-09T03:07:27.437Z,68.84
2023-05-09T03:09:54.483Z,68.61
2023-05-09T03:12:21.553Z,68.84
2023-05-09T03:14:54.758Z,68.26
2023-05-09T03:17:23.359Z,67.77
2023-05-09T03:19:50.493Z,67.22
2023-05-09T03:22:17.449Z,67.19
2023-05-09T03:24:52.798Z,66.72
2023-05-09T03:27:20.037Z,66.40
2023-05-09T03:29:48.729Z,65.38
2023-05-09T03:32:18.142Z,65.58
2023-05-09T03:34:45.202Z,65.34
2023-05-09T03:37:12.343Z,65.41
2023-05-09T03:39:40.952Z,65.17
2023-05-09T03:42:07.808Z,64.96
2023-05-09T03:44:34.682Z,64.53
2023-05-09T03:47:01.879Z,64.80
2023-05-09T03:49:41.432Z,65.00
2023-05-09T03:52:10.112Z,64.73
2023-05-09T03:54:37.095Z,63.97
2023-05-09T03:57:04.229Z,63.31
2023-05-09T03:59:34.616Z,63.33
2023-05-09T04:02:03.633Z,61.38
2023-05-09T04:04:31.024Z,60.55
2023-05-09T04:06:58.940Z,60.00
2023-05-09T04:09:27.372Z,58.54
2023-05-09T04:11:56.103Z,57.56
2023-05-09T04:14:22.932Z,57.10
2023-05-09T04:16:50.727Z,56.32
2023-05-09T04:19:17.628Z,55.82
2023-05-09T04:21:44.838Z,55.62
2023-05-09T04:24:11.857Z,54.02
2023-05-09T04:26:42.890Z,54.63
2023-05-09T04:29:13.533Z,53.00
2023-05-09T04:31:41.440Z,49.86
2023-05-09T04:34:11.597Z,46.45
2023-05-09T04:36:39.198Z,43.45
2023-05-09T04:39:06.418Z,40.61
2023-05-09T04:41:34.916Z,37.95
2023-05-09T04:44:02.180Z,36.17
2023-05-09T04:46:29.969Z,32.40
2023-05-09T04:48:57.521Z,31.29
2023-05-09T04:51:24.396Z,29.92
2023-05-09T04:53:51.781Z,28.33
2023-05-09T04:56:21.927Z,26.96
2023-05-09T04:58:49.609Z,25.19
2023-05-09T05:01:17.622Z,24.01
2023-05-09T05:03:46.126Z,23.77
2023-05-09T05:06:13.259Z,22.58
2023-05-09T05:08:42.004Z,21.91
2023-05-09T05:11:09.659Z,21.54
2023-05-09T05:13:36.668Z,20.83
2023-05-09T05:16:03.976Z,20.25
2023-05-09T05:18:30.964Z,19.61
2023-05-09T05:20:58.628Z,19.83
2023-05-09T05:23:26.228Z,19.40
2023-05-09T05:25:54.772Z,18.94
2023-05-09T05:28:23.645Z,18.34
2023-05-09T05:30:50.808Z,17.57
2023-05-09T05:33:17.854Z,17.27
2023-05-09T05:35:45.130Z,17.15
2023-05-09T05:38:12.009Z,17.00
2023-05-09T05:40:40.876Z,16.56
2023-05-09T05:43:08.689Z,16.64
2023-05-09T05:45:39.173Z,16.22
2023-05-09T05:48:08.926Z,15.99
2023-05-09T05:50:36.800Z,16.04
2023-05-09T05:53:04.438Z,15.16
2023-05-09T05:55:31.443Z,14.93
2023-05-09T05:57:58.511Z,14.60
2023-05-09T06:00:26.092Z,14.88
2023-05-09T06:03:02.497Z,14.01
2023-05-09T06:05:44.724Z,13.34
2023-05-09T06:08:12.203Z,13.52
2023-05-09T06:10:39.104Z,12.42
2023-05-09T06:13:06.121Z,12.28
2023-05-09T06:15:34.076Z,12.57
2023-05-09T06:18:01.951Z,11.96
2023-05-09T06:20:29.206Z,13.13
2023-05-09T06:22:56.723Z,11.97
2023-05-09T06:25:23.964Z,11.69
2023-05-09T06:27:50.905Z,11.95
2023-05-09T06:30:26.360Z,11.70
2023-05-09T06:32:54.767Z,11.78
2023-05-09T06:35:21.965Z,11.10
2023-05-09T06:37:49.236Z,11.12
2023-05-09T06:40:17.336Z,11.37
2023-05-09T06:42:44.965Z,11.00
2023-05-09T06:45:12.534Z,10.87
2023-05-09T06:47:40.051Z,10.60
2023-05-09T06:50:07.992Z,10.34
2023-05-09T06:52:34.990Z,10.16
2023-05-09T06:55:03.184Z,9.96
2023-05-09T06:57:32.263Z,10.48
2023-05-09T06:59:59.223Z,10.53
2023-05-09T07:02:26.245Z,10.61
2023-05-09T07:04:53.162Z,11.10
2023-05-09T07:07:20.118Z,12.04
2023-05-09T07:09:48.082Z,12.14
2023-05-09T07:12:16.644Z,11.34
2023-05-09T07:14:43.586Z,10.50
2023-05-09T07:17:22.010Z,9.85
2023-05-09T07:19:51.198Z,10.12
2023-05-09T07:22:18.220Z,10.00
2023-05-09T07:24:48.191Z,10.40
2023-05-09T07:27:15.046Z,10.12
2023-05-09T07:29:55.184Z,9.42
2023-05-09T07:32:22.262Z,9.88
2023-05-09T07:34:49.226Z,9.53
2023-05-09T07:37:16.576Z,10.88
2023-05-09T07:39:43.590Z,11.41
2023-05-09T07:42:11.053Z,12.72
2023-05-09T07:44:40.740Z,13.22
2023-05-09T07:47:09.138Z,13.78
2023-05-09T07:49:37.883Z,12.76
2023-05-09T07:52:25.726Z,11.22
2023-05-09T07:54:52.705Z,11.18
2023-05-09T07:57:20.121Z,11.00
2023-05-09T07:59:49.695Z,10.88
2023-05-09T08:02:16.776Z,10.13
2023-05-09T08:04:44.127Z,9.53
2023-05-09T08:07:12.021Z,9.83
2023-05-09T08:09:38.992Z,9.93
2023-05-09T08:12:06.285Z,9.61
2023-05-09T08:14:36.139Z,9.96
2023-05-09T08:17:03.454Z,9.75
2023-05-09T08:19:30.511Z,9.47
2023-05-09T08:21:57.471Z,9.50
2023-05-09T08:24:24.487Z,9.21
2023-05-09T08:26:51.453Z,8.35
2023-05-09T08:29:18.480Z,8.15
2023-05-09T08:31:48.177Z,7.71
2023-05-09T08:34:15.449Z,7.91
2023-05-09T08:36:47.141Z,8.43
2023-05-09T08:39:18.467Z,8.01
2023-05-09T08:41:46.320Z,7.75
2023-05-09T08:44:16.540Z,7.95
2023-05-09T08:46:45.782Z,8.37
2023-05-09T08:49:32.959Z,7.27
2023-05-09T08:52:00.339Z,7.12
2023-05-09T08:54:32.925Z,7.08
2023-05-09T08:57:01.346Z,7.13
2023-05-09T08:59:31.200Z,7.50
2023-05-09T09:01:58.540Z,7.18
2023-05-09T09:04:25.591Z,7.00
2023-05-09T09:06:56.834Z,7.16
2023-05-09T09:09:24.500Z,7.48
2023-05-09T09:11:53.530Z,8.17
2023-05-09T09:14:25.807Z,9.18
2023-05-09T09:16:54.804Z,10.63
2023-05-09T09:19:26.645Z,10.56
2023-05-09T09:21:57.976Z,11.27
2023-05-09T09:24:24.970Z,12.55
2023-05-09T09:26:52.397Z,13.22
2023-05-09T09:29:20.757Z,13.84
2023-05-09T09:31:57.068Z,13.81
2023-05-09T09:34:24.392Z,13.75
2023-05-09T09:36:51.592Z,13.56
2023-05-09T09:39:20.023Z,14.12
2023-05-09T09:41:47.299Z,14.13
2023-05-09T09:44:16.370Z,12.67
2023-05-09T09:46:51.024Z,13.06
2023-05-09T09:49:27.078Z,13.12
2023-05-09T09:51:57.117Z,13.71
2023-05-09T09:54:28.152Z,13.67
2023-05-09T09:56:59.015Z,13.59
2023-05-09T09:59:27.877Z,12.00
2023-05-09T10:01:58.612Z,12.05
2023-05-09T10:04:33.767Z,11.43
2023-05-09T10:07:06.448Z,10.48
2023-05-09T10:09:35.330Z,10.55
2023-05-09T10:12:04.765Z,10.57
2023-05-09T10:14:35.334Z,11.41
2023-05-09T10:17:06.114Z,11.86
2023-05-09T10:19:33.721Z,12.41
2023-05-09T10:22:08.261Z,12.18
2023-05-09T10:24:42.966Z,12.88
2023-05-09T10:27:11.768Z,13.25
2023-05-09T10:29:46.626Z,14.50
2023-05-09T10:32:43.365Z,13.39
2023-05-09T10:35:14.326Z,15.39
2023-05-09T10:37:47.235Z,14.50
2023-05-09T10:40:21.058Z,13.98
2023-05-09T10:42:58.712Z,13.04
2023-05-09T10:45:26.853Z,12.56
2023-05-09T10:47:57.866Z,13.24
2023-05-09T10:50:26.037Z,13.88
2023-05-09T10:53:17.996Z,14.62
2023-05-09T10:55:56.713Z,15.88
2023-05-09T10:58:34.037Z,15.45
2023-05-09T11:01:02.291Z,16.08
2023-05-09T11:03:59.301Z,17.02
2023-05-09T11:06:54.480Z,16.47
2023-05-09T11:09:33.499Z,17.39
2023-05-09T11:12:07.525Z,17.89
2023-05-09T11:14:38.114Z,17.31
2023-05-09T11:17:10.181Z,16.99
2023-05-09T11:19:59.351Z,15.12
2023-05-09T11:22:28.732Z,15.04
2023-05-09T11:25:06.024Z,14.31
2023-05-09T11:27:58.268Z,15.44
2023-05-09T11:30:39.546Z,14.73
2023-05-09T11:33:07.048Z,14.13
2023-05-09T11:35:37.881Z,13.35
2023-05-09T11:38:06.838Z,13.34
2023-05-09T11:40:37.988Z,13.72
2023-05-09T11:43:11.033Z,14.19
2023-05-09T11:45:41.244Z,14.53
2023-05-09T11:48:09.806Z,15.16
2023-05-09T11:50:57.042Z,15.57
2023-05-09T11:53:25.072Z,16.00
2023-05-09T11:55:52.021Z,16.08
2023-05-09T11:58:21.832Z,16.96
2023-05-09T12:00:49.392Z,16.80
2023-05-09T12:03:17.081Z,16.80
2023-05-09T12:05:44.847Z,16.10
2023-05-09T12:08:13.792Z,16.69
2023-05-09T12:10:41.048Z,17.04
2023-05-09T12:13:10.785Z,16.78
2023-05-09T12:15:38.338Z,17.83
2023-05-09T12:18:08.152Z,18.13
2023-05-09T12:20:46.138Z,17.96
2023-05-09T12:23:14.787Z,17.69
2023-05-09T12:25:56.393Z,17.06
2023-05-09T12:28:25.230Z,17.52
2023-05-09T12:30:53.293Z,17.44
2023-05-09T12:33:20.606Z,17.04
2023-05-09T12:35:49.508Z,18.05
2023-05-09T12:38:21.869Z,18.35
2023-05-09T12:40:51.084Z,17.68
2023-05-09T12:43:18.171Z,17.98
2023-05-09T12:45:45.342Z,18.14
2023-05-09T12:48:13.725Z,18.35
2023-05-09T12:50:40.791Z,18.03
2023-05-09T12:53:08.441Z,19.61
2023-05-09T12:55:44.035Z,18.39
2023-05-09T12:58:14.856Z,18.11
2023-05-09T13:00:46.063Z,17.66
2023-05-09T13:03:29.786Z,19.61
2023-05-09T13:06:03.919Z,18.40
2023-05-09T13:08:31.681Z,17.97
2023-05-09T13:11:14.950Z,18.30
2023-05-09T13:13:43.656Z,18.35
2023-05-09T13:16:12.595Z,18.35
2023-05-09T13:18:41.258Z,18.45
2023-05-09T13:21:08.239Z,19.09
2023-05-09T13:23:35.456Z,19.66
2023-05-09T13:26:02.337Z,19.10
2023-05-09T13:28:29.353Z,19.01
2023-05-09T13:30:56.532Z,19.07
2023-05-09T13:33:26.333Z,19.03
2023-05-09T13:35:54.044Z,18.94
2023-05-09T13:38:21.055Z,19.70
2023-05-09T13:40:48.083Z,19.54
2023-05-09T13:43:15.037Z,19.32
2023-05-09T13:45:41.932Z,19.69
2023-05-09T13:48:09.844Z,19.11
2023-05-09T13:50:37.659Z,18.31
2023-05-09T13:53:04.967Z,18.62
2023-05-09T13:55:32.349Z,18.54
2023-05-09T13:58:03.615Z,18.94
2023-05-09T14:00:31.551Z,18.88
2023-05-09T14:02:58.869Z,18.81
2023-05-09T14:05:26.031Z,18.96
2023-05-09T14:07:54.118Z,19.13
2023-05-09T14:10:22.073Z,18.94
2023-05-09T14:12:53.865Z,19.31
2023-05-09T14:15:21.039Z,19.74
2023-05-09T14:17:48.024Z,20.72
2023-05-09T14:20:16.458Z,20.65
2023-05-09T14:22:43.703Z,20.56
2023-05-09T14:25:10.617Z,20.66
2023-05-09T14:27:37.561Z,20.84
2023-05-09T14:30:05.201Z,21.72
2023-05-09T14:32:32.917Z,21.80
2023-05-09T14:35:00.028Z,22.78
2023-05-09T14:37:27.094Z,22.55
2023-05-09T14:39:54.053Z,23.26
2023-05-09T14:42:21.559Z,23.36
2023-05-09T14:44:48.529Z,23.74
2023-05-09T14:47:17.287Z,24.16
2023-05-09T14:49:44.395Z,24.07
2023-05-09T14:52:11.631Z,24.43
2023-05-09T14:54:38.580Z,23.90
2023-05-09T14:57:07.534Z,23.78
2023-05-09T14:59:36.900Z,23.45
2023-05-09T15:02:04.624Z,23.62
2023-05-09T15:04:31.748Z,24.10
2023-05-09T15:06:59.223Z,25.03
2023-05-09T15:09:27.027Z,25.57
2023-05-09T15:11:55.014Z,25.82
2023-05-09T15:14:22.164Z,24.25
2023-05-09T15:16:51.726Z,24.46
2023-05-09T15:19:19.247Z,24.21
2023-05-09T15:21:46.852Z,24.61
2023-05-09T15:24:13.855Z,23.74
2023-05-09T15:26:40.817Z,24.01
2023-05-09T15:29:07.721Z,24.51
2023-05-09T15:31:36.438Z,23.59
2023-05-09T15:34:03.649Z,23.48
2023-05-09T15:36:30.754Z,22.90
2023-05-09T15:38:57.722Z,23.02
2023-05-09T15:41:25.107Z,22.05
2023-05-09T15:43:52.452Z,22.24
2023-05-09T15:46:19.448Z,22.48
2023-05-09T15:48:46.482Z,22.15
2023-05-09T15:51:14.008Z,22.08
2023-05-09T15:53:41.122Z,22.41
2023-05-09T15:56:09.582Z,22.91
2023-05-09T15:58:37.114Z,22.33
2023-05-09T16:01:06.390Z,23.22
2023-05-09T16:03:33.821Z,23.80
2023-05-09T16:06:01.381Z,24.49
2023-05-09T16:08:28.349Z,24.27
2023-05-09T16:11:00.968Z,24.04
2023-05-09T16:13:28.353Z,25.24
2023-05-09T16:15:55.676Z,25.31
2023-05-09T16:18:24.294Z,25.40
2023-05-09T16:20:51.501Z,25.84
2023-05-09T16:23:18.329Z,25.75
2023-05-09T16:25:45.417Z,25.82
2023-05-09T16:28:14.061Z,25.72
2023-05-09T16:30:41.659Z,26.06
2023-05-09T16:33:08.851Z,26.68
2023-05-09T16:35:36.590Z,26.34
2023-05-09T16:38:03.650Z,26.20
2023-05-09T16:40:30.661Z,26.51
2023-05-09T16:42:57.644Z,26.37
2023-05-09T16:45:25.104Z,26.90
2023-05-09T16:47:52.043Z,27.95
2023-05-09T16:50:19.052Z,27.45
2023-05-09T16:52:45.953Z,27.68
2023-05-09T16:55:13.071Z,28.20
2023-05-09T16:57:40.007Z,28.47
2023-05-09T17:00:08.023Z,28.99
2023-05-09T17:02:36.538Z,28.46
2023-05-09T17:05:05.037Z,29.63
2023-05-09T17:07:32.463Z,29.42
2023-05-09T17:09:59.668Z,29.15
2023-05-09T17:12:27.760Z,29.74
2023-05-09T17:14:54.763Z,30.63
2023-05-09T17:17:21.789Z,30.46
2023-05-09T17:19:48.816Z,31.08
2023-05-09T17:22:15.814Z,31.20
2023-05-09T17:24:42.865Z,31.83
2023-05-09T17:27:11.554Z,32.06
2023-05-09T17:29:38.528Z,32.21
2023-05-09T17:32:05.982Z,32.73
2023-05-09T17:34:33.981Z,32.57
2023-05-09T17:37:05.760Z,33.40
2023-05-09T17:39:33.029Z,33.27
2023-05-09T17:41:59.975Z,33.45
2023-05-09T17:44:27.945Z,33.86
2023-05-09T17:46:54.905Z,33.77
2023-05-09T17:49:22.588Z,33.81
2023-05-09T17:51:49.647Z,34.26
2023-05-09T17:54:22.177Z,34.96
2023-05-09T17:56:51.228Z,34.75
2023-05-09T17:59:18.902Z,34.90
2023-05-09T18:01:46.215Z,35.47
2023-05-09T18:04:13.251Z,35.88
2023-05-09T18:06:40.185Z,35.84
2023-05-09T18:09:07.267Z,35.87
2023-05-09T18:11:35.295Z,35.56
2023-05-09T18:14:03.010Z,35.89
2023-05-09T18:16:30.000Z,35.72
2023-05-09T18:18:56.989Z,36.02
2023-05-09T18:21:23.949Z,36.88
2023-05-09T18:23:50.932Z,36.85
2023-05-09T18:26:17.812Z,37.49
2023-05-09T18:28:45.059Z,38.21
2023-05-09T18:31:13.244Z,38.03
2023-05-09T18:33:40.271Z,38.16
2023-05-09T18:36:11.280Z,38.31
2023-05-09T18:38:38.807Z,38.32
2023-05-09T18:41:07.901Z,38.21
2023-05-09T18:43:38.379Z,38.09
2023-05-09T18:46:08.552Z,38.13
2023-05-09T18:48:35.431Z,38.09
2023-05-09T18:51:02.352Z,37.55
2023-05-09T18:53:29.340Z,37.20
2023-05-09T18:55:56.997Z,37.42
2023-05-09T18:58:24.957Z,38.13
2023-05-09T19:00:53.101Z,37.55
2023-05-09T19:03:20.984Z,37.50
2023-05-09T19:05:48.031Z,37.75
2023-05-09T19:08:15.172Z,37.58
2023-05-09T19:10:42.570Z,37.42
2023-05-09T19:13:09.802Z,37.81
2023-05-09T19:15:36.895Z,38.80
2023-05-09T19:18:04.351Z,39.69
2023-05-09T19:20:31.696Z,39.97
2023-05-09T19:22:59.099Z,40.22
2023-05-09T19:25:26.876Z,40.21
2023-05-09T19:27:53.879Z,40.27
2023-05-09T19:30:21.026Z,40.46
2023-05-09T19:32:48.285Z,39.25
2023-05-09T19:35:16.122Z,39.64
2023-05-09T19:37:43.052Z,38.78
2023-05-09T19:40:11.398Z,39.66
2023-05-09T19:42:39.956Z,39.83
2023-05-09T19:45:07.252Z,40.59
2023-05-09T19:47:34.107Z,41.33
2023-05-09T19:50:02.260Z,41.48
2023-05-09T19:52:30.582Z,41.48
2023-05-09T19:54:57.905Z,41.25
2023-05-09T19:57:24.751Z,41.45
2023-05-09T19:59:52.354Z,40.65
2023-05-09T20:02:19.268Z,41.22
2023-05-09T20:04:49.908Z,41.22
2023-05-09T20:07:17.520Z,40.93
2023-05-09T20:09:44.650Z,40.75
2023-05-09T20:12:14.708Z,40.08
2023-05-09T20:14:41.742Z,40.46
2023-05-09T20:17:08.666Z,40.54
2023-05-09T20:19:35.682Z,39.82
2023-05-09T20:22:03.831Z,39.71
2023-05-09T20:24:33.958Z,40.05
2023-05-09T20:27:02.698Z,39.87
2023-05-09T20:29:29.674Z,40.79
2023-05-09T20:31:56.645Z,39.89
2023-05-09T20:34:24.795Z,40.37
2023-05-09T20:36:53.916Z,39.78
2023-05-09T20:39:21.499Z,39.70
2023-05-09T20:41:49.498Z,39.33
2023-05-09T20:44:18.024Z,39.28
2023-05-09T20:46:45.661Z,39.53
2023-05-09T20:49:13.023Z,38.85
2023-05-09T20:51:40.151Z,38.98
2023-05-09T20:54:07.359Z,38.73
2023-05-09T20:56:35.691Z,39.10
2023-05-09T20:59:04.299Z,39.72
2023-05-09T21:01:34.474Z,38.99
2023-05-09T21:04:01.464Z,39.17
2023-05-09T21:06:28.405Z,39.44
2023-05-09T21:08:55.373Z,40.17
2023-05-09T21:11:22.358Z,40.60
2023-05-09T21:13:49.294Z,39.82
2023-05-09T21:16:16.289Z,40.37
2023-05-09T21:18:43.314Z,40.17
2023-05-09T21:21:10.549Z,40.04
2023-05-09T21:23:37.486Z,41.30
2023-05-09T21:26:04.408Z,41.46
2023-05-09T21:28:31.558Z,41.82
2023-05-09T21:31:00.861Z,41.18
2023-05-09T21:33:28.149Z,41.10
2023-05-09T21:35:55.068Z,41.51
2023-05-09T21:38:21.995Z,40.76
2023-05-09T21:40:51.348Z,40.52
2023-05-09T21:43:19.861Z,39.72
2023-05-09T21:45:46.860Z,39.54
2023-05-09T21:48:13.814Z,39.49
2023-05-09T21:50:40.851Z,40.31
2023-05-09T21:53:07.786Z,39.25
2023-05-09T21:55:34.747Z,39.94
2023-05-09T21:58:01.851Z,40.72
2023-05-09T22:00:29.061Z,40.82
2023-05-09T22:02:56.237Z,40.67
2023-05-09T22:05:23.865Z,41.04
2023-05-09T22:07:51.713Z,40.35
2023-05-09T22:10:20.046Z,40.71
2023-05-09T22:12:47.061Z,39.98
2023-05-09T22:15:13.973Z,39.84
2023-05-09T22:17:41.136Z,40.59
2023-05-09T22:20:09.280Z,40.61
2023-05-09T22:22:36.316Z,40.00
2023-05-09T22:25:04.832Z,40.36
2023-05-09T22:27:31.790Z,40.13
2023-05-09T22:29:58.801Z,40.22
2023-05-09T22:32:25.705Z,39.92
2023-05-09T22:34:54.231Z,39.03
2023-05-09T22:37:21.717Z,39.54
2023-05-09T22:39:48.662Z,39.78
2023-05-09T22:42:16.213Z,39.40
2023-05-09T22:44:43.272Z,39.52
2023-05-09T22:47:10.599Z,39.38
2023-05-09T22:49:37.571Z,39.56
2023-05-09T22:52:04.738Z,40.26
2023-05-09T22:54:31.806Z,39.80
2023-05-09T22:56:58.773Z,39.78
2023-05-09T22:59:25.814Z,39.45
2023-05-09T23:01:53.608Z,39.67
2023-05-09T23:04:20.752Z,39.63
2023-05-09T23:06:47.659Z,39.96
2023-05-09T23:09:15.137Z,40.88
2023-05-09T23:11:42.417Z,40.86
2023-05-09T23:14:09.446Z,41.09
2023-05-09T23:16:36.404Z,40.66
2023-05-09T23:19:03.407Z,40.33
2023-05-09T23:21:30.476Z,40.28
2023-05-09T23:23:57.375Z,40.49
2023-05-09T23:26:26.534Z,40.44
2023-05-09T23:28:55.350Z,40.77
2023-05-09T23:31:22.415Z,40.31
2023-05-09T23:33:49.677Z,41.20
2023-05-09T23:36:16.847Z,40.77
2023-05-09T23:38:43.812Z,41.63
2023-05-09T23:41:11.000Z,41.58
2023-05-09T23:43:38.179Z,42.79
2023-05-09T23:46:05.142Z,42.69
2023-05-09T23:48:32.082Z,43.27
2023-05-09T23:50:59.064Z,43.05
2023-05-09T23:53:26.386Z,43.12
2023-05-09T23:55:53.424Z,43.42
2023-05-09T23:58:21.280Z,43.30
